createdAt,value
2023-01-19T00:01:35.186Z,71.56
2023-01-19T00:04:05.357Z,71.45
2023-01-19T00:06:35.378Z,71.34
2023-01-19T00:09:07.859Z,71.69
2023-01-19T00:11:37.893Z,71.18
2023-01-19T00:14:07.962Z,71.21
2023-01-19T00:16:37.844Z,71.35
2023-01-19T00:19:07.627Z,71.35
2023-01-19T00:21:37.509Z,71.50
2023-01-19T00:24:10.473Z,71.41
2023-01-19T00:26:40.518Z,71.26
2023-01-19T00:29:10.524Z,70.78
2023-01-19T00:31:41.004Z,71.13
2023-01-19T00:34:11.216Z,71.09
2023-01-19T00:36:41.057Z,70.95
2023-01-19T00:39:13.487Z,71.50
2023-01-19T00:42:07.737Z,71.81
2023-01-19T00:44:37.590Z,71.48
2023-01-19T00:47:07.434Z,71.38
2023-01-19T00:49:37.292Z,71.75
2023-01-19T00:52:07.546Z,72.05
2023-01-19T00:54:40.008Z,72.26
2023-01-19T00:57:09.820Z,71.89
2023-01-19T00:59:39.636Z,72.16
2023-01-19T01:02:09.760Z,71.85
2023-01-19T01:04:39.722Z,71.95
2023-01-19T01:07:10.037Z,72.01
2023-01-19T01:09:42.453Z,71.87
2023-01-19T01:12:12.326Z,72.04
2023-01-19T01:14:42.159Z,72.00
2023-01-19T01:17:14.354Z,72.24
2023-01-19T01:19:44.463Z,71.92
2023-01-19T01:22:14.301Z,71.47
2023-01-19T01:24:47.167Z,71.90
2023-01-19T01:27:17.138Z,71.85
2023-01-19T01:29:47.173Z,71.69
2023-01-19T01:32:18.035Z,72.06
2023-01-19T01:34:47.890Z,72.25
2023-01-19T01:37:17.726Z,71.72
2023-01-19T01:39:50.161Z,71.96
2023-01-19T01:42:23.278Z,71.91
2023-01-19T01:44:55.795Z,71.71
2023-01-19T01:47:33.773Z,71.38
2023-01-19T01:50:11.540Z,71.25
2023-01-19T01:53:06.846Z,71.34
2023-01-19T01:55:46.067Z,71.22
2023-01-19T01:58:19.313Z,70.78
2023-01-19T02:01:02.019Z,70.89
2023-01-19T02:03:33.260Z,71.38
2023-01-19T02:06:08.744Z,70.58
2023-01-19T02:08:57.886Z,70.70
2023-01-19T02:11:44.032Z,70.96
2023-01-19T02:14:13.983Z,71.59
2023-01-19T02:16:43.889Z,71.29
2023-01-19T02:19:20.703Z,71.55
2023-01-19T02:21:58.171Z,71.53
2023-01-19T02:24:31.022Z,71.30
2023-01-19T02:27:02.711Z,70.98
2023-01-19T02:29:32.590Z,71.04
2023-01-19T02:32:03.199Z,70.87
2023-01-19T02:34:33.325Z,70.81
2023-01-19T02:37:08.909Z,71.10
2023-01-19T02:39:47.564Z,71.17
2023-01-19T02:42:25.161Z,70.43
2023-01-19T02:44:58.266Z,69.74
2023-01-19T02:47:28.487Z,70.16
2023-01-19T02:49:59.576Z,69.87
2023-01-19T02:52:30.823Z,69.79
2023-01-19T02:55:15.847Z,69.95
2023-01-19T02:58:01.318Z,69.82
2023-01-19T03:00:48.664Z,70.13
2023-01-19T03:03:30.998Z,70.30
2023-01-19T03:06:08.168Z,70.56
2023-01-19T03:08:49.866Z,70.20
2023-01-19T03:11:22.965Z,70.53
2023-01-19T03:13:57.048Z,70.28
2023-01-19T03:16:37.801Z,70.23
2023-01-19T03:19:14.891Z,70.76
2023-01-19T03:21:51.092Z,70.46
2023-01-19T03:24:24.006Z,70.35
2023-01-19T03:27:03.711Z,70.32
2023-01-19T03:29:37.710Z,70.54
2023-01-19T03:32:14.165Z,70.55
2023-01-19T03:34:49.047Z,70.53
2023-01-19T03:37:22.805Z,70.77
2023-01-19T03:39:53.121Z,70.72
2023-01-19T03:42:29.950Z,70.60
2023-01-19T03:45:04.264Z,71.04
2023-01-19T03:47:35.451Z,71.04
2023-01-19T03:50:12.106Z,70.91
2023-01-19T03:52:42.006Z,71.26
2023-01-19T03:55:13.784Z,71.24
2023-01-19T03:57:46.221Z,71.04
2023-01-19T04:00:17.846Z,70.99
2023-01-19T04:02:47.671Z,70.77
2023-01-19T04:05:17.610Z,70.90
2023-01-19T04:07:47.433Z,70.87
2023-01-19T04:10:17.268Z,70.64
2023-01-19T04:12:50.025Z,70.35
2023-01-19T04:15:20.411Z,70.14
2023-01-19T04:17:50.829Z,70.14
2023-01-19T04:20:21.805Z,70.30
2023-01-19T04:22:52.330Z,70.28
2023-01-19T04:25:22.286Z,70.51
2023-01-19T04:27:58.382Z,70.00
2023-01-19T04:30:28.428Z,69.80
2023-01-19T04:32:58.759Z,69.89
2023-01-19T04:35:28.810Z,70.19
2023-01-19T04:37:58.628Z,69.95
2023-01-19T04:40:28.544Z,70.33
2023-01-19T04:43:01.391Z,70.80
2023-01-19T04:45:31.697Z,70.64
2023-01-19T04:48:01.639Z,70.41
2023-01-19T04:50:31.535Z,69.93
2023-01-19T04:53:02.537Z,70.15
2023-01-19T04:55:32.548Z,69.99
2023-01-19T04:58:04.931Z,69.87
2023-01-19T05:00:34.814Z,70.62
2023-01-19T05:03:05.633Z,70.62
2023-01-19T05:05:35.867Z,71.18
2023-01-19T05:08:05.841Z,71.35
2023-01-19T05:10:36.565Z,71.11
2023-01-19T05:13:08.997Z,71.32
2023-01-19T05:15:38.819Z,71.21
2023-01-19T05:18:08.760Z,71.30
2023-01-19T05:20:39.632Z,71.43
2023-01-19T05:23:09.743Z,71.56
2023-01-19T05:25:39.647Z,71.86
2023-01-19T05:28:12.268Z,72.12
2023-01-19T05:30:42.113Z,72.07
2023-01-19T05:33:12.002Z,72.27
2023-01-19T05:35:41.923Z,71.84
2023-01-19T05:38:11.995Z,71.40
2023-01-19T05:40:41.869Z,71.61
2023-01-19T05:43:14.478Z,71.83
2023-01-19T05:45:45.607Z,71.60
2023-01-19T05:48:15.397Z,71.83
2023-01-19T05:50:45.213Z,71.72
2023-01-19T05:53:15.062Z,71.84
2023-01-19T05:55:45.022Z,71.82
2023-01-19T05:58:17.491Z,72.27
2023-01-19T06:00:47.413Z,72.53
2023-01-19T06:03:17.739Z,72.49
2023-01-19T06:05:47.773Z,72.47
2023-01-19T06:08:17.667Z,72.05
2023-01-19T06:10:47.461Z,71.66
2023-01-19T06:13:20.432Z,71.86
2023-01-19T06:15:50.281Z,72.27
2023-01-19T06:18:20.075Z,72.25
2023-01-19T06:20:49.873Z,72.42
2023-01-19T06:23:21.058Z,72.23
2023-01-19T06:25:52.011Z,71.95
2023-01-19T06:28:25.256Z,71.92
2023-01-19T06:30:57.450Z,71.57
2023-01-19T06:33:30.355Z,71.43
2023-01-19T06:36:00.193Z,71.81
2023-01-19T06:38:30.964Z,71.05
2023-01-19T06:41:03.183Z,71.39
2023-01-19T06:43:35.657Z,71.27
2023-01-19T06:46:05.542Z,70.92
2023-01-19T06:48:35.356Z,70.85
2023-01-19T06:51:06.078Z,71.11
2023-01-19T06:53:35.969Z,71.44
2023-01-19T06:56:07.256Z,71.23
2023-01-19T06:58:40.381Z,71.33
2023-01-19T07:01:11.225Z,70.97
2023-01-19T07:03:41.140Z,70.90
2023-01-19T07:06:11.093Z,70.81
2023-01-19T07:08:42.675Z,70.79
2023-01-19T07:11:26.477Z,70.41
2023-01-19T07:14:04.101Z,71.00
2023-01-19T07:16:34.649Z,70.76
2023-01-19T07:19:04.597Z,70.95
2023-01-19T07:21:34.552Z,70.76
2023-01-19T07:24:04.440Z,70.99
2023-01-19T07:26:34.309Z,70.53
2023-01-19T07:29:06.715Z,70.58
2023-01-19T07:31:36.712Z,71.01
2023-01-19T07:34:06.977Z,70.48
2023-01-19T07:36:37.067Z,70.21
2023-01-19T07:39:06.932Z,70.22
2023-01-19T07:41:36.831Z,70.05
2023-01-19T07:44:12.704Z,70.04
2023-01-19T07:46:43.414Z,69.69
2023-01-19T07:49:13.472Z,69.63
2023-01-19T07:51:43.759Z,69.71
2023-01-19T07:54:13.588Z,69.53
2023-01-19T07:56:43.382Z,69.30
2023-01-19T07:59:15.847Z,69.64
2023-01-19T08:01:45.785Z,69.25
2023-01-19T08:04:16.036Z,69.65
2023-01-19T08:06:49.233Z,69.25
2023-01-19T08:09:19.260Z,69.21
2023-01-19T08:11:49.400Z,69.05
2023-01-19T08:14:21.909Z,68.59
2023-01-19T08:16:51.828Z,68.46
2023-01-19T08:19:22.068Z,68.62
2023-01-19T08:21:51.903Z,68.19
2023-01-19T08:24:25.821Z,68.32
2023-01-19T08:27:01.965Z,68.68
2023-01-19T08:29:34.577Z,68.56
2023-01-19T08:32:04.875Z,68.44
2023-01-19T08:34:35.510Z,68.11
2023-01-19T08:37:05.434Z,68.23
2023-01-19T08:39:35.275Z,68.43
2023-01-19T08:42:05.696Z,68.19
2023-01-19T08:44:43.877Z,67.77
2023-01-19T08:47:20.051Z,67.89
2023-01-19T08:49:49.941Z,68.19
2023-01-19T08:52:19.817Z,67.73
2023-01-19T08:54:49.628Z,67.66
2023-01-19T08:57:19.466Z,68.15
2023-01-19T08:59:51.894Z,67.99
2023-01-19T09:02:21.856Z,67.59
2023-01-19T09:04:51.791Z,67.52
2023-01-19T09:07:21.946Z,67.34
2023-01-19T09:09:51.952Z,67.58
2023-01-19T09:12:21.837Z,67.08
2023-01-19T09:14:54.328Z,67.46
2023-01-19T09:17:24.255Z,66.47
2023-01-19T09:19:54.247Z,67.15
2023-01-19T09:22:24.217Z,67.06
2023-01-19T09:24:54.334Z,67.15
2023-01-19T09:27:24.325Z,66.97
2023-01-19T09:29:56.722Z,66.83
2023-01-19T09:32:26.530Z,66.23
2023-01-19T09:34:56.899Z,66.60
2023-01-19T09:37:26.833Z,66.34
2023-01-19T09:39:56.727Z,65.52
2023-01-19T09:42:36.090Z,64.89
2023-01-19T09:45:18.977Z,65.25
2023-01-19T09:47:51.973Z,65.20
2023-01-19T09:50:29.679Z,65.71
2023-01-19T09:53:08.176Z,65.89
2023-01-19T09:55:41.193Z,65.93
2023-01-19T09:58:18.437Z,65.99
2023-01-19T10:00:58.978Z,66.82
2023-01-19T10:03:29.046Z,66.66
2023-01-19T10:06:05.496Z,66.58
2023-01-19T10:08:46.676Z,66.63
2023-01-19T10:11:41.900Z,66.18
2023-01-19T10:14:25.937Z,66.62
2023-01-19T10:17:12.095Z,66.83
2023-01-19T10:19:48.565Z,67.39
2023-01-19T10:22:24.364Z,67.91
2023-01-19T10:24:59.391Z,68.80
2023-01-19T10:27:34.254Z,69.04
2023-01-19T10:30:05.246Z,69.77
2023-01-19T10:32:39.602Z,70.99
2023-01-19T10:35:23.426Z,71.69
2023-01-19T10:37:56.161Z,71.98
2023-01-19T10:40:36.537Z,72.31
2023-01-19T10:43:37.666Z,71.84
2023-01-19T10:46:20.662Z,71.36
2023-01-19T10:48:56.134Z,71.34
2023-01-19T10:51:26.451Z,70.55
2023-01-19T10:54:03.495Z,71.17
2023-01-19T10:56:37.684Z,70.54
2023-01-19T10:59:09.604Z,70.12
2023-01-19T11:01:39.766Z,70.20
2023-01-19T11:04:31.522Z,70.38
2023-01-19T11:07:17.336Z,70.28
2023-01-19T11:09:47.424Z,70.27
2023-01-19T11:12:24.560Z,69.75
2023-01-19T11:14:54.617Z,69.47
2023-01-19T11:17:28.323Z,69.54
2023-01-19T11:20:05.207Z,69.60
2023-01-19T11:22:36.488Z,68.99
2023-01-19T11:25:08.735Z,69.13
2023-01-19T11:27:40.197Z,68.92
2023-01-19T11:30:22.051Z,68.86
2023-01-19T11:32:51.949Z,68.87
2023-01-19T11:35:39.072Z,68.43
2023-01-19T11:38:27.703Z,68.70
2023-01-19T11:40:59.837Z,68.47
2023-01-19T11:43:48.280Z,68.43
2023-01-19T11:46:20.567Z,68.20
2023-01-19T11:49:01.836Z,67.63
2023-01-19T11:51:46.108Z,68.39
2023-01-19T11:54:27.242Z,68.30
2023-01-19T11:57:02.936Z,68.05
2023-01-19T11:59:32.975Z,67.72
2023-01-19T12:02:16.074Z,67.83
2023-01-19T12:04:48.122Z,68.32
2023-01-19T12:07:29.394Z,68.31
2023-01-19T12:10:28.315Z,68.41
2023-01-19T12:13:00.122Z,67.98
2023-01-19T12:15:39.208Z,68.00
2023-01-19T12:18:18.359Z,68.70
2023-01-19T12:20:53.252Z,68.32
2023-01-19T12:23:38.792Z,68.58
2023-01-19T12:26:30.062Z,68.41
2023-01-19T12:29:06.889Z,68.28
2023-01-19T12:31:36.958Z,68.61
2023-01-19T12:34:42.639Z,68.29
2023-01-19T12:37:41.013Z,68.01
2023-01-19T12:40:29.086Z,68.58
2023-01-19T12:43:03.885Z,68.26
2023-01-19T12:45:36.567Z,68.62
2023-01-19T12:48:11.692Z,68.17
2023-01-19T12:50:42.107Z,68.78
2023-01-19T12:53:23.914Z,68.33
2023-01-19T12:56:11.472Z,68.65
2023-01-19T12:58:41.434Z,68.59
2023-01-19T13:01:21.955Z,68.91
2023-01-19T13:04:07.003Z,68.99
2023-01-19T13:07:10.417Z,68.49
2023-01-19T13:09:43.208Z,68.66
2023-01-19T13:12:23.873Z,68.75
2023-01-19T13:15:14.281Z,68.70
2023-01-19T13:17:53.469Z,68.35
2023-01-19T13:20:30.662Z,68.39
2023-01-19T13:23:25.834Z,68.07
2023-01-19T13:26:16.366Z,68.54
2023-01-19T13:28:55.101Z,68.78
2023-01-19T13:31:27.721Z,68.71
2023-01-19T13:34:00.940Z,68.29
2023-01-19T13:36:34.461Z,68.22
2023-01-19T13:39:08.708Z,67.96
2023-01-19T13:41:42.584Z,67.68
2023-01-19T13:44:21.905Z,67.16
2023-01-19T13:46:53.553Z,67.09
2023-01-19T13:49:31.993Z,66.59
2023-01-19T13:52:13.109Z,66.59
2023-01-19T13:54:51.714Z,66.06
2023-01-19T13:57:30.624Z,65.65
2023-01-19T14:00:08.373Z,65.81
2023-01-19T14:02:42.516Z,64.59
2023-01-19T14:05:16.595Z,64.13
2023-01-19T14:07:46.675Z,63.21
2023-01-19T14:10:20.097Z,61.94
2023-01-19T14:13:01.273Z,60.26
2023-01-19T14:15:38.608Z,60.03
2023-01-19T14:18:27.431Z,61.54
2023-01-19T14:21:01.037Z,61.35
2023-01-19T14:23:47.778Z,60.21
2023-01-19T14:26:46.800Z,60.54
2023-01-19T14:29:29.096Z,60.16
2023-01-19T14:32:28.540Z,60.27
2023-01-19T14:35:17.500Z,59.95
2023-01-19T14:37:53.729Z,59.91
2023-01-19T14:40:27.035Z,59.99
2023-01-19T14:43:00.607Z,59.92
2023-01-19T14:45:36.697Z,59.70
2023-01-19T14:48:20.539Z,59.08
2023-01-19T14:51:02.703Z,60.25
2023-01-19T14:53:39.968Z,60.39
2023-01-19T14:56:10.105Z,59.83
2023-01-19T14:58:40.026Z,59.65
2023-01-19T15:01:09.969Z,59.06
2023-01-19T15:03:45.482Z,59.95
2023-01-19T15:06:19.628Z,61.18
2023-01-19T15:08:51.185Z,61.88
2023-01-19T15:11:26.498Z,62.22
2023-01-19T15:13:57.054Z,61.42
2023-01-19T15:16:30.367Z,62.00
2023-01-19T15:19:03.940Z,62.85
2023-01-19T15:21:33.869Z,63.54
2023-01-19T15:24:03.870Z,63.78
2023-01-19T15:26:33.791Z,64.03
2023-01-19T15:29:03.792Z,64.46
2023-01-19T15:31:33.780Z,65.23
2023-01-19T15:34:06.265Z,64.79
2023-01-19T15:36:36.195Z,64.89
2023-01-19T15:39:06.217Z,65.20
2023-01-19T15:41:36.521Z,65.80
2023-01-19T15:44:07.275Z,65.93
2023-01-19T15:46:37.359Z,66.24
2023-01-19T15:49:09.866Z,66.43
2023-01-19T15:51:39.772Z,66.90
2023-01-19T15:54:16.700Z,67.38
2023-01-19T15:56:46.760Z,67.59
2023-01-19T15:59:16.763Z,67.62
2023-01-19T16:01:46.904Z,68.20
2023-01-19T16:04:19.542Z,68.66
2023-01-19T16:06:50.101Z,68.70
2023-01-19T16:09:20.280Z,69.18
2023-01-19T16:11:50.400Z,69.86
2023-01-19T16:14:20.331Z,69.68
2023-01-19T16:16:50.365Z,69.98
2023-01-19T16:19:23.007Z,70.19
2023-01-19T16:21:52.958Z,70.37
2023-01-19T16:24:22.892Z,70.88
2023-01-19T16:26:52.903Z,70.95
2023-01-19T16:29:23.047Z,70.99
2023-01-19T16:31:53.187Z,71.02
2023-01-19T16:34:26.261Z,71.00
2023-01-19T16:36:56.209Z,70.50
2023-01-19T16:39:26.177Z,70.78
2023-01-19T16:41:56.122Z,70.98
2023-01-19T16:44:26.146Z,70.85
2023-01-19T16:46:56.197Z,71.01
2023-01-19T16:49:30.418Z,71.07
2023-01-19T16:52:00.382Z,70.72
2023-01-19T16:54:32.215Z,71.37
2023-01-19T16:57:02.444Z,71.06
2023-01-19T16:59:32.512Z,70.86
2023-01-19T17:02:02.709Z,71.01
2023-01-19T17:04:35.661Z,71.42
2023-01-19T17:07:05.632Z,71.56
2023-01-19T17:09:35.655Z,71.06
2023-01-19T17:12:07.494Z,71.94
2023-01-19T17:14:38.379Z,71.72
2023-01-19T17:17:09.484Z,71.43
2023-01-19T17:19:42.679Z,71.65
2023-01-19T17:22:13.040Z,71.70
2023-01-19T17:24:43.765Z,72.04
2023-01-19T17:27:13.813Z,72.37
2023-01-19T17:29:43.772Z,72.47
2023-01-19T17:32:13.732Z,72.16
2023-01-19T17:34:46.763Z,71.52
2023-01-19T17:37:16.685Z,72.20
2023-01-19T17:39:46.657Z,72.26
2023-01-19T17:42:16.618Z,72.05
2023-01-19T17:44:46.583Z,72.84
2023-01-19T17:47:16.518Z,72.47
2023-01-19T17:49:49.072Z,72.59
2023-01-19T17:52:19.096Z,72.68
2023-01-19T17:54:49.102Z,72.38
2023-01-19T17:57:19.208Z,72.62
2023-01-19T17:59:50.332Z,72.55
2023-01-19T18:02:24.412Z,72.36
2023-01-19T18:04:59.308Z,72.55
2023-01-19T18:07:29.533Z,73.03
2023-01-19T18:10:01.051Z,72.72
2023-01-19T18:12:31.445Z,73.21
2023-01-19T18:15:01.384Z,72.67
2023-01-19T18:17:33.246Z,72.89
2023-01-19T18:20:06.092Z,73.06
2023-01-19T18:22:36.031Z,72.81
2023-01-19T18:25:06.017Z,72.52
2023-01-19T18:27:35.842Z,72.49
2023-01-19T18:30:05.968Z,72.66
2023-01-19T18:32:37.203Z,72.91
2023-01-19T18:35:11.123Z,73.00
2023-01-19T18:37:41.076Z,73.02
2023-01-19T18:40:13.727Z,73.26
2023-01-19T18:42:43.930Z,72.45
2023-01-19T18:45:14.376Z,72.26
2023-01-19T18:47:44.278Z,72.23
2023-01-19T18:50:17.156Z,72.33
2023-01-19T18:52:51.259Z,72.16
2023-01-19T18:55:21.215Z,72.23
2023-01-19T18:57:51.120Z,71.93
2023-01-19T19:00:22.414Z,71.62
2023-01-19T19:02:53.344Z,71.91
2023-01-19T19:05:25.942Z,71.50
2023-01-19T19:07:55.836Z,71.46
2023-01-19T19:10:25.834Z,71.20
2023-01-19T19:12:55.800Z,71.21
2023-01-19T19:15:27.264Z,71.43
2023-01-19T19:17:57.677Z,71.06
2023-01-19T19:20:30.750Z,71.19
2023-01-19T19:23:00.629Z,70.94
2023-01-19T19:25:30.511Z,71.13
2023-01-19T19:28:00.410Z,71.36
2023-01-19T19:30:30.516Z,71.62
2023-01-19T19:33:01.199Z,71.63
2023-01-19T19:35:33.758Z,71.27
2023-01-19T19:38:03.673Z,71.38
2023-01-19T19:40:33.567Z,71.47
2023-01-19T19:43:04.117Z,71.40
2023-01-19T19:45:33.996Z,71.49
2023-01-19T19:48:03.937Z,71.66
2023-01-19T19:50:37.404Z,71.89
2023-01-19T19:53:07.289Z,72.18
2023-01-19T19:55:39.077Z,72.16
2023-01-19T19:58:09.026Z,72.45
2023-01-19T20:00:39.260Z,72.42
2023-01-19T20:03:13.487Z,72.38
2023-01-19T20:05:46.003Z,72.36
2023-01-19T20:08:16.192Z,72.51
2023-01-19T20:10:46.048Z,72.36
2023-01-19T20:13:19.338Z,71.87
2023-01-19T20:15:49.461Z,71.80
2023-01-19T20:18:19.326Z,72.08
2023-01-19T20:20:51.854Z,71.98
2023-01-19T20:23:21.750Z,72.16
2023-01-19T20:25:51.836Z,72.05
2023-01-19T20:28:21.898Z,71.73
2023-01-19T20:30:51.888Z,71.56
2023-01-19T20:33:21.969Z,71.83
2023-01-19T20:35:54.544Z,71.55
2023-01-19T20:38:24.528Z,71.31
2023-01-19T20:40:56.290Z,71.00
2023-01-19T20:43:26.365Z,70.31
2023-01-19T20:45:56.474Z,70.79
2023-01-19T20:48:26.524Z,70.84
2023-01-19T20:51:04.033Z,70.41
2023-01-19T20:53:34.387Z,70.92
2023-01-19T20:56:06.820Z,70.51
2023-01-19T20:58:37.264Z,70.34
2023-01-19T21:01:13.822Z,70.75
2023-01-19T21:03:44.238Z,70.22
2023-01-19T21:06:17.803Z,70.48
2023-01-19T21:08:49.729Z,70.31
2023-01-19T21:11:23.959Z,70.51
2023-01-19T21:13:56.296Z,70.44
2023-01-19T21:16:26.615Z,70.75
2023-01-19T21:18:57.203Z,70.73
2023-01-19T21:21:31.739Z,71.01
2023-01-19T21:24:03.805Z,69.95
2023-01-19T21:26:34.432Z,69.63
2023-01-19T21:29:05.530Z,69.67
2023-01-19T21:31:35.518Z,69.35
2023-01-19T21:34:05.495Z,69.63
2023-01-19T21:36:37.955Z,69.29
2023-01-19T21:39:09.204Z,69.60
2023-01-19T21:41:42.394Z,68.95
2023-01-19T21:44:14.619Z,68.58
2023-01-19T21:46:44.835Z,69.65
2023-01-19T21:49:20.731Z,69.87
2023-01-19T21:51:53.337Z,69.69
2023-01-19T21:54:23.219Z,69.86
2023-01-19T21:56:53.147Z,69.97
2023-01-19T21:59:22.995Z,69.83
2023-01-19T22:01:52.979Z,69.66
2023-01-19T22:04:23.260Z,69.88
2023-01-19T22:06:55.711Z,70.03
2023-01-19T22:09:25.729Z,70.47
2023-01-19T22:11:55.873Z,70.14
2023-01-19T22:14:25.812Z,69.42
2023-01-19T22:16:55.976Z,69.68
2023-01-19T22:19:26.060Z,69.95
2023-01-19T22:21:58.507Z,69.74
2023-01-19T22:24:28.460Z,69.36
2023-01-19T22:26:58.278Z,69.31
2023-01-19T22:29:43.219Z,69.53
2023-01-19T22:32:13.086Z,69.56
2023-01-19T22:34:42.950Z,70.04
2023-01-19T22:37:15.434Z,69.79
2023-01-19T22:39:46.120Z,70.38
2023-01-19T22:42:16.146Z,70.39
2023-01-19T22:44:46.926Z,69.95
2023-01-19T22:47:16.812Z,69.96
2023-01-19T22:49:46.637Z,70.47
2023-01-19T22:52:19.197Z,71.01
2023-01-19T22:54:49.068Z,70.87
2023-01-19T22:57:18.946Z,70.89
2023-01-19T22:59:48.846Z,70.75
2023-01-19T23:02:20.780Z,70.71
2023-01-19T23:04:51.050Z,70.67
2023-01-19T23:07:23.498Z,70.54
2023-01-19T23:09:53.328Z,70.25
2023-01-19T23:12:23.225Z,71.05
2023-01-19T23:14:53.130Z,71.83
2023-01-19T23:17:23.045Z,71.83
2023-01-19T23:19:52.907Z,71.84
2023-01-19T23:22:25.390Z,71.96
2023-01-19T23:24:55.206Z,72.08
2023-01-19T23:27:25.322Z,72.81
2023-01-19T23:29:55.830Z,73.05
2023-01-19T23:32:25.763Z,73.45
2023-01-19T23:34:56.222Z,73.74
2023-01-19T23:37:28.672Z,73.61
2023-01-19T23:39:58.501Z,73.37
2023-01-19T23:42:28.361Z,73.92
2023-01-19T23:44:58.205Z,74.07
2023-01-19T23:47:28.064Z,74.07
2023-01-19T23:49:57.927Z,73.90
2023-01-19T23:52:30.390Z,73.92
2023-01-19T23:55:00.747Z,73.85
2023-01-19T23:57:30.622Z,73.79
